createdAt,value
2023-04-10T00:04:25.153Z,66103.63
2023-04-10T00:09:30.285Z,65999.84
2023-04-10T00:14:35.966Z,66081.22
2023-04-10T00:19:40.149Z,66094.00
2023-04-10T00:24:44.313Z,66028.66
2023-04-10T00:29:49.733Z,65954.38
2023-04-10T00:34:53.836Z,65963.47
2023-04-10T00:40:00.448Z,66013.03
2023-04-10T00:45:06.869Z,66021.25
2023-04-10T00:50:12.164Z,66018.03
2023-04-10T00:55:16.956Z,66061.94
2023-04-10T01:00:22.689Z,66088.19
2023-04-10T01:05:30.637Z,66114.97
2023-04-10T01:10:42.140Z,65975.94
2023-04-10T01:15:51.179Z,65935.19
2023-04-10T01:20:56.157Z,65917.53
2023-04-10T01:26:04.117Z,66018.38
2023-04-10T01:31:20.077Z,66056.59
2023-04-10T01:36:29.626Z,66010.53
2023-04-10T01:41:35.355Z,65966.66
2023-04-10T01:46:41.095Z,66060.88
2023-04-10T01:51:46.579Z,66046.06
2023-04-10T01:56:51.392Z,65954.38
2023-04-10T02:01:59.177Z,65955.88
2023-04-10T02:07:05.723Z,65883.69
2023-04-10T02:12:14.791Z,65948.47
2023-04-10T02:17:24.641Z,65946.97
2023-04-10T02:22:29.708Z,65873.16
2023-04-10T02:27:35.879Z,65941.97
2023-04-10T02:32:42.150Z,65798.78
2023-04-10T02:37:47.492Z,65957.03
2023-04-10T02:42:53.054Z,65938.84
2023-04-10T02:47:58.741Z,65876.34
2023-04-10T02:53:03.252Z,65860.25
2023-04-10T02:58:08.409Z,65843.66
2023-04-10T03:03:14.250Z,65845.63
2023-04-10T03:08:26.584Z,65868.25
2023-04-10T03:13:30.746Z,65822.72
2023-04-10T03:18:36.716Z,65874.75
2023-04-10T03:23:40.998Z,65788.72
2023-04-10T03:28:45.190Z,65835.72
2023-04-10T03:33:51.077Z,65859.06
2023-04-10T03:38:56.260Z,65939.28
2023-04-10T03:44:02.187Z,65967.53
2023-04-10T03:49:07.827Z,65905.69
2023-04-10T03:54:12.061Z,65831.91
2023-04-10T03:59:16.198Z,65858.63
2023-04-10T04:04:22.068Z,65877.88
2023-04-10T04:09:44.580Z,65943.13
2023-04-10T04:15:05.747Z,65916.38
2023-04-10T04:20:30.299Z,65871.03
2023-04-10T04:25:59.311Z,65888.13
2023-04-10T04:31:21.932Z,65896.50
2023-04-10T04:36:47.269Z,65868.78
2023-04-10T04:42:09.805Z,65884.75
2023-04-10T04:47:43.249Z,65932.44
2023-04-10T04:53:08.085Z,65964.97
2023-04-10T04:58:44.640Z,65998.69
2023-04-10T05:03:52.799Z,65942.56
2023-04-10T05:09:13.642Z,66057.22
2023-04-10T05:14:30.790Z,65987.00
2023-04-10T05:20:11.293Z,65972.13
2023-04-10T05:25:34.362Z,66005.72
2023-04-10T05:30:54.489Z,66008.84
2023-04-10T05:36:24.507Z,66029.19
2023-04-10T05:41:40.412Z,66083.75
2023-04-10T05:47:07.370Z,66024.91
2023-04-10T05:52:31.652Z,65983.59
2023-04-10T05:58:00.554Z,65990.22
2023-04-10T06:03:24.117Z,66076.50
2023-04-10T06:08:34.740Z,66119.34
2023-04-10T06:13:40.568Z,66094.63
2023-04-10T06:18:44.760Z,66129.88
2023-04-10T06:23:48.816Z,66040.34
2023-04-10T06:28:54.715Z,66027.50
2023-04-10T06:33:58.917Z,66049.03
2023-04-10T06:39:04.800Z,66074.91
2023-04-10T06:44:11.510Z,66074.34
2023-04-10T06:49:15.686Z,66144.44
2023-04-10T06:54:19.561Z,66309.66
2023-04-10T06:59:25.228Z,66176.13
2023-04-10T07:04:29.299Z,66153.63
2023-04-10T07:09:33.213Z,66188.81
2023-04-10T07:14:38.659Z,66212.50
2023-04-10T07:19:42.579Z,66253.34
2023-04-10T07:24:46.936Z,66295.19
2023-04-10T07:29:54.307Z,66275.41
2023-04-10T07:34:58.280Z,66306.97
2023-04-10T07:40:02.730Z,66289.19
2023-04-10T07:45:10.133Z,66295.00
2023-04-10T07:50:13.996Z,66325.69
2023-04-10T07:55:18.175Z,66425.06
2023-04-10T08:00:23.627Z,66454.59
2023-04-10T08:05:27.842Z,66477.13
2023-04-10T08:10:31.917Z,66562.06
2023-04-10T08:15:37.331Z,66529.09
2023-04-10T08:20:41.453Z,66466.16
2023-04-10T08:25:46.288Z,66442.78
2023-04-10T08:30:51.730Z,66541.38
2023-04-10T08:35:55.851Z,66592.53
2023-04-10T08:41:00.044Z,66659.34
2023-04-10T08:46:10.207Z,66765.81
2023-04-10T08:51:20.580Z,66603.28
2023-04-10T08:56:33.926Z,66577.63
2023-04-10T09:01:41.770Z,66538.31
2023-04-10T09:06:46.025Z,66565.75
2023-04-10T09:12:04.438Z,66598.97
2023-04-10T09:17:18.260Z,66635.59
2023-04-10T09:22:32.166Z,66694.78
2023-04-10T09:27:37.576Z,66667.78
2023-04-10T09:32:45.221Z,66574.03
2023-04-10T09:37:49.426Z,66717.91
2023-04-10T09:42:56.042Z,66702.88
2023-04-10T09:48:07.252Z,66721.59
2023-04-10T09:53:14.387Z,66739.00
2023-04-10T09:58:19.170Z,66816.91
2023-04-10T10:03:25.907Z,66823.59
2023-04-10T10:08:34.168Z,66775.56
2023-04-10T10:13:45.719Z,66744.91
2023-04-10T10:19:00.722Z,66499.09
2023-04-10T10:24:10.001Z,66470.16
2023-04-10T10:29:18.684Z,66519.97
2023-04-10T10:34:24.899Z,66650.66
2023-04-10T10:39:52.542Z,66655.75
2023-04-10T10:45:07.289Z,66724.38
2023-04-10T10:50:13.141Z,66737.28
2023-04-10T10:55:44.502Z,66645.81
2023-04-10T11:01:11.440Z,66772.19
2023-04-10T11:06:20.133Z,66698.63
2023-04-10T11:11:25.134Z,66825.66
2023-04-10T11:16:51.503Z,66875.75
2023-04-10T11:22:05.600Z,66841.13
2023-04-10T11:27:10.656Z,66792.81
2023-04-10T11:32:15.234Z,66869.81
2023-04-10T11:37:25.611Z,67049.31
2023-04-10T11:42:29.863Z,67056.38
2023-04-10T11:47:34.313Z,66894.66
2023-04-10T11:52:40.021Z,66884.81
2023-04-10T11:57:44.397Z,66812.03
2023-04-10T12:02:53.870Z,66942.44
2023-04-10T12:08:00.190Z,67310.44
2023-04-10T12:13:06.192Z,67371.09
2023-04-10T12:18:11.615Z,67213.75
2023-04-10T12:23:18.188Z,67214.44
2023-04-10T12:28:23.441Z,67302.41
2023-04-10T12:33:27.569Z,67020.09
2023-04-10T12:38:48.373Z,66914.38
2023-04-10T12:43:54.131Z,66876.81
2023-04-10T12:48:58.201Z,66729.16
2023-04-10T12:54:03.839Z,66664.72
2023-04-10T12:59:09.395Z,66781.88
2023-04-10T13:04:13.638Z,67128.41
2023-04-10T13:09:19.159Z,67302.53
2023-04-10T13:14:24.100Z,67453.63
2023-04-10T13:19:28.176Z,67379.06
2023-04-10T13:24:33.738Z,67049.31
2023-04-10T13:29:38.395Z,66891.28
2023-04-10T13:34:45.268Z,66875.22
2023-04-10T13:39:52.398Z,66871.91
2023-04-10T13:44:58.521Z,66867.59
2023-04-10T13:50:02.625Z,67063.34
2023-04-10T13:55:09.459Z,67163.09
2023-04-10T14:00:14.613Z,66850.91
2023-04-10T14:05:19.784Z,66685.16
2023-04-10T14:10:25.366Z,66597.97
2023-04-10T14:15:29.500Z,66578.09
2023-04-10T14:20:33.998Z,66598.97
2023-04-10T14:25:39.540Z,66600.13
2023-04-10T14:30:43.655Z,66681.25
2023-04-10T14:35:49.196Z,66807.34
2023-04-10T14:40:55.184Z,66847.19
2023-04-10T14:45:59.351Z,66813.19
2023-04-10T14:51:04.918Z,66841.13
2023-04-10T14:56:18.884Z,66981.91
2023-04-10T15:01:23.447Z,66929.09
2023-04-10T15:06:28.372Z,66911.34
2023-04-10T15:11:34.303Z,66845.59
2023-04-10T15:16:38.433Z,66794.88
2023-04-10T15:21:42.547Z,66844.50
2023-04-10T15:26:48.622Z,66999.69
2023-04-10T15:31:52.682Z,67029.34
2023-04-10T15:36:56.764Z,66807.25
2023-04-10T15:42:05.406Z,66600.66
2023-04-10T15:47:09.670Z,66247.97
2023-04-10T15:52:19.326Z,66095.06
2023-04-10T15:58:17.213Z,66035.16
2023-04-10T16:03:24.693Z,66065.78
2023-04-10T16:08:29.763Z,66054.03
2023-04-10T16:13:34.000Z,66000.66
2023-04-10T16:18:39.534Z,66045.88
2023-04-10T16:23:43.757Z,66202.75
2023-04-10T16:28:47.912Z,66296.72
2023-04-10T16:33:53.642Z,66282.13
2023-04-10T16:38:57.837Z,66302.50
2023-04-10T16:44:02.146Z,66268.66
2023-04-10T16:49:07.616Z,66319.31
2023-04-10T16:54:14.052Z,66384.16
2023-04-10T16:59:18.609Z,66413.78
2023-04-10T17:04:24.348Z,66352.56
2023-04-10T17:09:32.104Z,66379.78
2023-04-10T17:14:36.099Z,66350.34
2023-04-10T17:19:41.445Z,66246.75
2023-04-10T17:24:46.240Z,66266.28
2023-04-10T17:29:50.274Z,66280.06
2023-04-10T17:34:58.540Z,66234.91
2023-04-10T17:40:03.290Z,66268.72
2023-04-10T17:45:09.725Z,66149.25
2023-04-10T17:50:15.560Z,66254.41
2023-04-10T17:55:20.541Z,66211.97
2023-04-10T18:00:26.828Z,66164.78
2023-04-10T18:05:36.874Z,66185.16
2023-04-10T18:10:41.081Z,66229.56
2023-04-10T18:15:45.639Z,66109.63
2023-04-10T18:20:51.263Z,66155.75
2023-04-10T18:25:55.818Z,66185.63
2023-04-10T18:30:59.859Z,66233.50
2023-04-10T18:36:05.966Z,66201.34
2023-04-10T18:41:10.171Z,66198.47
2023-04-10T18:46:15.226Z,66213.47
2023-04-10T18:51:21.290Z,66105.25
2023-04-10T18:56:25.493Z,66173.81
2023-04-10T19:01:32.312Z,66183.56
2023-04-10T19:06:42.815Z,66005.72
2023-04-10T19:11:46.827Z,66053.38
2023-04-10T19:16:51.297Z,65999.38
2023-04-10T19:21:56.891Z,66037.22
2023-04-10T19:27:02.634Z,65978.00
2023-04-10T19:32:13.389Z,66091.41
2023-04-10T19:37:20.591Z,66146.66
2023-04-10T19:42:24.853Z,66153.63
2023-04-10T19:47:28.963Z,66174.91
2023-04-10T19:52:34.373Z,66192.03
2023-04-10T19:57:41.571Z,66211.41
2023-04-10T20:02:45.777Z,66162.03
2023-04-10T20:07:51.363Z,66209.72
2023-04-10T20:12:55.358Z,66212.41
2023-04-10T20:17:59.404Z,66205.44
2023-04-10T20:23:04.889Z,66229.03
2023-04-10T20:28:09.049Z,66247.97
2023-04-10T20:33:13.107Z,66294.09
2023-04-10T20:38:19.336Z,66267.75
2023-04-10T20:43:24.800Z,66299.31
2023-04-10T20:48:28.934Z,66309.50
2023-04-10T20:53:34.669Z,66292.50
2023-04-10T20:58:38.766Z,66160.53
2023-04-10T21:03:42.962Z,66246.75
2023-04-10T21:08:48.672Z,66218.94
2023-04-10T21:13:52.787Z,66182.56
2023-04-10T21:18:56.767Z,66170.78
2023-04-10T21:24:02.087Z,66162.03
2023-04-10T21:29:06.056Z,66109.53
2023-04-10T21:34:10.152Z,66131.41
2023-04-10T21:39:15.574Z,66147.22
2023-04-10T21:44:19.715Z,66138.09
2023-04-10T21:49:23.706Z,66172.31
2023-04-10T21:54:29.807Z,66089.34
2023-04-10T21:59:33.973Z,66087.56
2023-04-10T22:04:47.844Z,66083.81
2023-04-10T22:09:59.140Z,66058.38
2023-04-10T22:15:04.050Z,65997.78
2023-04-10T22:20:08.695Z,65956.41
2023-04-10T22:25:14.109Z,65929.66
2023-04-10T22:30:18.394Z,65836.63
2023-04-10T22:35:22.409Z,65801.91
2023-04-10T22:40:27.844Z,65905.59
2023-04-10T22:45:31.735Z,65930.28
2023-04-10T22:50:35.749Z,65933.31
2023-04-10T22:55:41.154Z,65892.66
2023-04-10T23:00:45.126Z,65907.38
2023-04-10T23:05:49.004Z,65974.78
2023-04-10T23:10:55.746Z,65857.03
2023-04-10T23:15:59.669Z,65697.06
2023-04-10T23:21:06.833Z,65720.13
2023-04-10T23:26:12.524Z,65650.72
2023-04-10T23:31:16.633Z,65790.09
2023-04-10T23:36:20.795Z,65815.88
2023-04-10T23:41:26.177Z,65831.19
2023-04-10T23:46:30.139Z,65879.91
2023-04-10T23:51:34.480Z,65854.34
2023-04-10T23:56:39.757Z,65952.13
